createdAt,value
2018-06-21T00:01:57.671Z,2.70
2018-06-21T00:04:33.781Z,3.10
2018-06-21T00:07:09.197Z,2.77
2018-06-21T00:09:44.788Z,2.70
2018-06-21T00:12:19.945Z,2.98
2018-06-21T00:14:55.340Z,3.40
2018-06-21T00:17:30.530Z,3.50
2018-06-21T00:20:05.685Z,2.90
2018-06-21T00:22:40.805Z,2.97
2018-06-21T00:25:16.108Z,3.13
2018-06-21T00:27:51.489Z,3.00
2018-06-21T00:30:27.737Z,3.10
2018-06-21T00:33:03.054Z,2.77
2018-06-21T00:35:38.500Z,2.90
2018-06-21T00:38:13.881Z,2.90
2018-06-21T00:40:49.830Z,2.83
2018-06-21T00:43:25.101Z,3.15
2018-06-21T00:46:00.549Z,2.80
2018-06-21T00:48:35.882Z,2.83
2018-06-21T00:51:11.108Z,3.43
2018-06-21T00:53:46.145Z,2.70
2018-06-21T00:56:21.397Z,2.67
2018-06-21T00:58:56.730Z,2.87
2018-06-21T01:01:31.890Z,2.80
2018-06-21T01:04:06.760Z,2.77
2018-06-21T01:06:42.414Z,2.60
2018-06-21T01:09:17.672Z,2.90
2018-06-21T01:11:53.170Z,3.37
2018-06-21T01:14:28.164Z,3.03
2018-06-21T01:17:03.434Z,3.13
2018-06-21T01:19:38.545Z,3.00
2018-06-21T01:22:13.757Z,3.10
2018-06-21T01:24:48.806Z,2.63
2018-06-21T01:27:24.146Z,2.97
2018-06-21T01:29:58.697Z,2.60
2018-06-21T01:32:33.773Z,2.80
2018-06-21T01:35:08.652Z,2.70
2018-06-21T01:37:44.058Z,2.80
2018-06-21T01:40:19.923Z,3.72
2018-06-21T01:42:55.869Z,2.77
2018-06-21T01:45:31.192Z,2.97
2018-06-21T01:48:06.708Z,3.17
2018-06-21T01:50:43.120Z,2.80
2018-06-21T01:53:18.285Z,3.30
2018-06-21T01:55:53.443Z,3.20
2018-06-21T01:58:28.749Z,3.07
2018-06-21T02:01:04.453Z,3.27
2018-06-21T02:03:39.424Z,2.73
2018-06-21T02:06:14.508Z,3.40
2018-06-21T02:08:50.000Z,3.00
2018-06-21T02:11:24.928Z,2.87
2018-06-21T02:14:00.029Z,3.00
2018-06-21T02:16:35.009Z,3.40
2018-06-21T02:19:10.109Z,2.83
2018-06-21T02:21:45.030Z,3.20
2018-06-21T02:24:20.181Z,3.57
2018-06-21T02:26:55.253Z,3.50
2018-06-21T02:29:30.213Z,3.23
2018-06-21T02:32:05.322Z,3.27
2018-06-21T02:34:40.472Z,3.30
2018-06-21T02:37:15.362Z,3.43
2018-06-21T02:39:50.737Z,3.00
2018-06-21T02:42:25.707Z,3.45
2018-06-21T02:45:00.488Z,3.50
2018-06-21T02:47:35.533Z,3.57
2018-06-21T02:50:10.977Z,3.03
2018-06-21T02:52:45.591Z,3.12
2018-06-21T02:55:20.881Z,3.30
2018-06-21T02:57:55.745Z,3.00
2018-06-21T03:00:32.723Z,3.02
2018-06-21T03:03:07.400Z,2.90
2018-06-21T03:05:42.462Z,3.30
2018-06-21T03:08:17.625Z,3.17
2018-06-21T03:10:53.868Z,3.40
2018-06-21T03:13:28.997Z,3.30
2018-06-21T03:16:04.508Z,3.37
2018-06-21T03:18:39.397Z,4.33
2018-06-21T03:21:14.597Z,3.53
2018-06-21T03:23:49.532Z,3.73
2018-06-21T03:26:24.800Z,3.37
2018-06-21T03:28:59.720Z,3.63
2018-06-21T03:31:35.129Z,3.00
2018-06-21T03:34:10.253Z,3.20
2018-06-21T03:36:45.605Z,3.33
2018-06-21T03:39:20.749Z,4.00
2018-06-21T03:41:55.979Z,3.30
2018-06-21T03:44:30.493Z,3.37
2018-06-21T03:47:05.573Z,3.43
2018-06-21T03:49:40.688Z,3.20
2018-06-21T03:52:16.141Z,3.77
2018-06-21T03:54:51.084Z,3.80
2018-06-21T03:57:26.283Z,4.13
2018-06-21T04:00:01.250Z,3.50
2018-06-21T04:02:36.362Z,3.70
2018-06-21T04:05:11.549Z,3.70
2018-06-21T04:07:47.141Z,3.57
2018-06-21T04:33:01.469Z,3.47
2018-06-21T04:35:36.465Z,4.10
2018-06-21T04:38:11.870Z,4.13
2018-06-21T05:03:25.029Z,3.76
2018-06-21T05:06:00.201Z,4.30
2018-06-21T05:08:35.372Z,4.20
2018-06-21T05:11:10.338Z,3.55
2018-06-21T05:13:45.780Z,4.27
2018-06-21T05:16:21.161Z,4.20
2018-06-21T05:18:56.336Z,3.73
2018-06-21T05:21:31.517Z,3.57
2018-06-21T05:24:07.065Z,4.17
2018-06-21T05:26:42.336Z,3.97
2018-06-21T05:29:17.381Z,4.10
2018-06-21T05:31:52.605Z,3.90
2018-06-21T05:34:27.660Z,4.37
2018-06-21T05:37:02.787Z,3.83
2018-06-21T05:39:38.297Z,4.20
2018-06-21T05:42:13.768Z,4.77
2018-06-21T05:44:49.076Z,4.50
2018-06-21T05:47:24.366Z,4.70
2018-06-21T05:49:59.743Z,4.33
2018-06-21T05:52:35.287Z,4.47
2018-06-21T05:55:10.753Z,4.60
2018-06-21T05:57:45.722Z,3.70
2018-06-21T06:00:22.273Z,3.70
2018-06-21T06:02:57.262Z,3.80
2018-06-21T06:05:32.499Z,4.10
2018-06-21T06:08:07.915Z,4.20
2018-06-21T06:10:44.276Z,3.70
2018-06-21T06:13:19.003Z,3.70
2018-06-21T06:15:54.312Z,3.67
2018-06-21T06:18:29.585Z,3.60
2018-06-21T06:21:04.614Z,3.80
2018-06-21T06:23:39.971Z,3.90
2018-06-21T06:26:15.180Z,3.43
2018-06-21T06:28:50.445Z,4.20
2018-06-21T06:31:25.566Z,4.27
2018-06-21T06:34:00.778Z,3.83
2018-06-21T06:36:36.021Z,3.77
2018-06-21T06:39:18.165Z,3.50
2018-06-21T06:41:53.634Z,3.60
2018-06-21T06:44:28.953Z,3.33
2018-06-21T06:47:04.547Z,4.00
2018-06-21T06:49:39.561Z,3.67
2018-06-21T06:52:14.825Z,3.60
2018-06-21T06:54:50.082Z,3.80
2018-06-21T06:57:25.392Z,3.77
2018-06-21T07:00:00.388Z,4.00
2018-06-21T07:02:36.072Z,4.20
2018-06-21T07:05:11.281Z,3.87
2018-06-21T07:07:46.590Z,3.93
2018-06-21T07:10:22.904Z,3.58
2018-06-21T07:12:58.268Z,4.30
2018-06-21T07:15:33.431Z,4.07
2018-06-21T07:18:08.832Z,3.93
2018-06-21T07:20:45.026Z,4.10
2018-06-21T07:23:20.293Z,3.97
2018-06-21T07:25:55.557Z,4.37
2018-06-21T07:28:31.163Z,3.80
2018-06-21T07:31:06.304Z,3.62
2018-06-21T07:33:41.681Z,4.23
2018-06-21T07:36:17.304Z,3.60
2018-06-21T07:38:52.847Z,3.60
2018-06-21T07:41:27.953Z,3.63
2018-06-21T07:44:03.538Z,3.73
2018-06-21T07:46:38.830Z,3.90
2018-06-21T07:49:14.233Z,3.57
2018-06-21T07:51:49.737Z,3.80
2018-06-21T07:54:24.884Z,3.83
2018-06-21T07:57:00.296Z,3.73
2018-06-21T07:59:35.777Z,3.73
2018-06-21T08:02:11.116Z,4.20
2018-06-21T08:04:46.384Z,3.67
2018-06-21T08:07:21.766Z,3.90
2018-06-21T08:09:57.078Z,4.03
2018-06-21T08:12:32.011Z,3.90
2018-06-21T08:15:07.949Z,4.10
2018-06-21T08:17:43.229Z,4.07
2018-06-21T08:20:19.350Z,3.67
2018-06-21T08:22:54.687Z,4.10
2018-06-21T08:25:29.557Z,4.20
2018-06-21T08:28:05.262Z,4.07
2018-06-21T08:30:40.926Z,4.00
2018-06-21T08:33:16.173Z,3.93
2018-06-21T08:35:51.372Z,4.27
2018-06-21T08:38:26.637Z,3.80
2018-06-21T08:41:03.041Z,4.35
2018-06-21T08:43:38.442Z,4.40
2018-06-21T08:46:13.837Z,4.20
2018-06-21T08:48:48.920Z,4.07
2018-06-21T08:51:24.077Z,4.20
2018-06-21T08:53:59.057Z,4.43
2018-06-21T08:56:34.657Z,4.17
2018-06-21T08:59:09.937Z,3.73
2018-06-21T09:01:45.117Z,3.80
2018-06-21T09:04:20.225Z,3.90
2018-06-21T09:07:06.387Z,4.10
2018-06-21T09:09:41.708Z,4.07
2018-06-21T09:12:17.962Z,4.20
2018-06-21T09:14:53.101Z,4.03
2018-06-21T09:17:28.258Z,3.80
2018-06-21T09:20:03.457Z,3.77
2018-06-21T09:22:38.910Z,4.00
2018-06-21T09:25:14.025Z,3.80
2018-06-21T09:27:49.229Z,4.07
2018-06-21T09:30:25.517Z,4.40
2018-06-21T09:33:00.705Z,3.90
2018-06-21T09:35:36.014Z,4.10
2018-06-21T09:38:16.636Z,3.80
2018-06-21T09:40:57.892Z,3.92
2018-06-21T09:43:50.291Z,4.00
2018-06-21T09:46:19.025Z,4.17
2018-06-21T09:48:54.437Z,4.00
2018-06-21T09:51:29.623Z,4.50
2018-06-21T09:54:05.444Z,3.90
2018-06-21T09:56:40.902Z,3.83
2018-06-21T09:59:16.217Z,4.27
2018-06-21T10:01:58.348Z,4.20
2018-06-21T10:04:33.865Z,4.33
2018-06-21T10:07:09.142Z,4.27
2018-06-21T10:09:45.845Z,3.67
2018-06-21T10:12:21.177Z,4.30
2018-06-21T10:14:56.404Z,3.83
2018-06-21T10:17:31.529Z,4.00
2018-06-21T10:20:06.873Z,3.70
2018-06-21T10:22:41.967Z,4.00
2018-06-21T10:25:17.134Z,4.00
2018-06-21T10:27:52.713Z,3.73
2018-06-21T10:30:29.576Z,4.10
2018-06-21T10:33:04.807Z,4.00
2018-06-21T10:48:51.407Z,4.10
2018-06-21T10:51:26.601Z,4.27
2018-06-21T10:54:02.132Z,4.10
2018-06-21T10:56:37.589Z,4.20
2018-06-21T10:59:12.977Z,4.50
2018-06-21T11:01:48.697Z,4.07
2018-06-21T11:04:24.001Z,4.03
2018-06-21T11:06:59.392Z,4.20
2018-06-21T11:09:34.701Z,4.53
2018-06-21T11:12:10.110Z,4.23
2018-06-21T11:14:45.486Z,4.10
2018-06-21T11:17:20.765Z,4.17
2018-06-21T11:19:56.426Z,4.23
2018-06-21T11:22:31.580Z,3.73
2018-06-21T11:25:06.800Z,3.90
2018-06-21T11:27:42.370Z,4.40
2018-06-21T11:30:19.000Z,4.60
2018-06-21T11:32:54.470Z,4.90
2018-06-21T11:35:29.638Z,4.33
2018-06-21T11:38:04.957Z,4.60
2018-06-21T11:40:41.198Z,4.40
2018-06-21T11:43:16.469Z,4.50
2018-06-21T11:45:51.895Z,4.10
2018-06-21T11:48:27.005Z,4.30
2018-06-21T11:51:03.245Z,4.62
2018-06-21T11:53:38.572Z,4.53
2018-06-21T11:56:14.027Z,4.17
2018-06-21T11:58:49.526Z,4.10
2018-06-21T12:01:24.783Z,4.10
2018-06-21T12:04:00.097Z,4.00
2018-06-21T12:06:35.438Z,4.80
2018-06-21T12:09:11.389Z,4.13
2018-06-21T12:11:46.785Z,3.80
2018-06-21T12:14:22.175Z,4.30
2018-06-21T12:16:58.393Z,3.80
2018-06-21T12:19:33.840Z,4.00
2018-06-21T12:22:09.297Z,4.00
2018-06-21T12:24:44.814Z,3.60
2018-06-21T12:27:20.498Z,3.83
2018-06-21T12:29:55.801Z,4.13
2018-06-21T12:32:31.489Z,4.20
2018-06-21T12:35:06.971Z,4.70
2018-06-21T12:37:42.496Z,4.27
2018-06-21T12:40:18.693Z,5.33
2018-06-21T12:42:54.090Z,4.27
2018-06-21T12:45:29.292Z,4.63
2018-06-21T12:48:04.473Z,4.30
2018-06-21T13:10:02.513Z,4.87
2018-06-21T13:12:49.781Z,5.60
2018-06-21T13:15:25.335Z,5.00
2018-06-21T13:18:00.601Z,4.60
2018-06-21T13:35:17.668Z,4.87
2018-06-21T13:37:53.217Z,4.77
2018-06-21T13:40:29.664Z,4.78
2018-06-21T13:43:04.797Z,4.93
2018-06-21T13:45:39.604Z,5.07
2018-06-21T13:48:14.937Z,4.73
2018-06-21T13:50:50.584Z,4.85
2018-06-21T13:53:25.968Z,4.70
2018-06-21T13:56:01.102Z,4.62
2018-06-21T13:58:36.467Z,4.67
2018-06-21T14:01:11.695Z,5.10
2018-06-21T14:03:47.047Z,4.10
2018-06-21T14:06:22.414Z,4.60
2018-06-21T14:08:57.451Z,4.30
2018-06-21T14:11:32.378Z,4.55
2018-06-21T14:14:07.253Z,4.40
2018-06-21T14:16:42.533Z,4.20
2018-06-21T14:19:17.296Z,4.30
2018-06-21T14:21:52.584Z,4.47
2018-06-21T14:24:27.617Z,4.35
2018-06-21T14:27:02.707Z,4.30
2018-06-21T14:29:37.920Z,4.83
2018-06-21T14:32:12.732Z,4.43
2018-06-21T14:34:47.953Z,4.45
2018-06-21T14:37:22.620Z,4.65
2018-06-21T14:39:57.849Z,5.05
2018-06-21T14:42:33.570Z,4.78
2018-06-21T14:45:08.506Z,4.83
2018-06-21T14:47:43.522Z,4.58
2018-06-21T14:50:18.626Z,4.80
2018-06-21T14:52:54.148Z,4.70
2018-06-21T14:55:29.661Z,4.87
2018-06-21T14:58:05.201Z,4.87
2018-06-21T15:00:41.205Z,4.83
2018-06-21T15:03:16.272Z,4.60
2018-06-21T15:05:51.426Z,4.60
2018-06-21T15:08:27.499Z,4.83
2018-06-21T15:33:39.765Z,5.35
2018-06-21T15:36:14.911Z,5.55
2018-06-21T15:38:50.564Z,4.90
2018-06-21T15:41:26.457Z,5.62
2018-06-21T15:44:16.003Z,5.60
2018-06-21T15:46:50.993Z,6.10
2018-06-21T15:49:26.451Z,6.15
2018-06-21T15:52:01.610Z,5.80
2018-06-21T15:54:36.818Z,5.85
2018-06-21T15:57:11.931Z,5.40
2018-06-21T15:59:47.033Z,6.15
2018-06-21T16:02:22.113Z,6.05
2018-06-21T16:04:57.441Z,5.72
2018-06-21T16:07:32.482Z,5.78
2018-06-21T16:10:09.511Z,5.86
2018-06-21T16:12:44.455Z,6.10
2018-06-21T16:15:30.867Z,6.00
2018-06-21T16:18:06.275Z,6.22
2018-06-21T16:20:43.445Z,6.03
2018-06-21T16:23:33.682Z,6.00
2018-06-21T16:26:09.061Z,6.30
2018-06-21T16:28:44.187Z,6.17
2018-06-21T16:31:19.405Z,6.20
2018-06-21T16:33:54.546Z,6.37
2018-06-21T16:36:29.621Z,6.42
2018-06-21T16:39:06.427Z,6.72
2018-06-21T16:41:41.565Z,6.20
2018-06-21T16:44:16.626Z,6.40
2018-06-21T16:46:51.730Z,6.53
2018-06-21T16:49:26.872Z,6.10
2018-06-21T16:52:02.126Z,6.28
2018-06-21T16:54:37.204Z,5.95
2018-06-21T16:57:12.362Z,6.75
2018-06-21T20:46:59.909Z,2.37
2018-06-21T20:49:34.929Z,2.00
2018-06-21T20:52:14.516Z,1.40
2018-06-21T20:54:49.540Z,1.43
2018-06-21T20:57:25.320Z,1.73
2018-06-21T21:00:00.400Z,1.70
2018-06-21T21:02:35.709Z,1.53
2018-06-21T21:05:10.576Z,1.40
2018-06-21T21:07:47.090Z,1.50
